createdAt,value
2018-12-05T00:00:46.795Z,97.90
2018-12-05T00:02:48.750Z,97.90
2018-12-05T00:04:50.702Z,98.20
2018-12-05T00:06:52.662Z,98.10
2018-12-05T00:08:54.626Z,98.20
2018-12-05T00:10:56.575Z,97.70
2018-12-05T00:12:58.571Z,98.00
2018-12-05T00:15:00.541Z,97.70
2018-12-05T00:17:02.513Z,98.00
2018-12-05T00:19:04.463Z,98.20
2018-12-05T00:21:06.409Z,98.10
2018-12-05T00:23:08.367Z,98.30
2018-12-05T00:25:10.318Z,98.30
2018-12-05T00:27:12.267Z,98.40
2018-12-05T00:29:14.223Z,99.10
2018-12-05T00:31:16.174Z,99.30
2018-12-05T00:33:18.263Z,99.30
2018-12-05T00:35:20.206Z,99.30
2018-12-05T00:37:22.183Z,99.60
2018-12-05T00:39:24.127Z,99.50
2018-12-05T00:41:26.070Z,99.40
2018-12-05T00:43:28.031Z,99.20
2018-12-05T00:45:29.985Z,98.60
2018-12-05T00:47:31.966Z,98.60
2018-12-05T00:49:33.916Z,98.30
2018-12-05T00:51:35.866Z,99.20
2018-12-05T00:53:37.823Z,99.60
2018-12-05T00:55:39.792Z,99.90
2018-12-05T00:57:41.755Z,99.90
2018-12-05T00:59:43.711Z,99.50
2018-12-05T01:01:45.662Z,98.60
2018-12-05T01:03:47.631Z,98.20
2018-12-05T01:05:49.580Z,98.50
2018-12-05T01:07:51.535Z,98.90
2018-12-05T01:09:53.495Z,99.70
2018-12-05T01:11:55.451Z,99.80
2018-12-05T01:13:57.414Z,99.90
2018-12-05T01:15:59.370Z,99.90
2018-12-05T01:18:01.327Z,99.90
2018-12-05T01:20:03.623Z,99.90
2018-12-05T01:22:05.576Z,99.90
2018-12-05T01:24:07.547Z,99.90
2018-12-05T01:26:09.503Z,99.90
2018-12-05T01:28:11.451Z,99.90
2018-12-05T01:30:13.403Z,99.90
2018-12-05T01:32:15.352Z,99.90
2018-12-05T01:34:17.310Z,99.90
2018-12-05T01:36:19.262Z,99.90
2018-12-05T01:38:21.215Z,99.90
2018-12-05T01:40:23.191Z,99.90
2018-12-05T01:42:25.198Z,99.90
2018-12-05T01:44:27.151Z,99.90
2018-12-05T01:46:29.099Z,99.90
2018-12-05T01:48:31.077Z,99.90
2018-12-05T01:52:41.855Z,99.70
2018-12-05T01:54:43.823Z,99.60
2018-12-05T01:56:45.787Z,99.70
2018-12-05T01:58:47.744Z,99.60
2018-12-05T02:00:49.699Z,99.90
2018-12-05T02:02:51.659Z,99.90
2018-12-05T02:04:53.618Z,99.90
2018-12-05T02:06:55.575Z,99.90
2018-12-05T02:08:57.523Z,99.90
2018-12-05T02:10:59.516Z,99.90
2018-12-05T02:13:01.523Z,99.90
2018-12-05T02:15:03.964Z,99.90
2018-12-05T02:17:05.939Z,99.90
2018-12-05T02:19:07.899Z,99.90
2018-12-05T02:21:09.860Z,99.90
2018-12-05T02:23:11.827Z,99.90
2018-12-05T02:25:13.779Z,99.90
2018-12-05T02:27:15.725Z,99.90
2018-12-05T02:29:17.679Z,99.90
2018-12-05T02:31:20.032Z,99.90
2018-12-05T02:33:21.991Z,99.90
2018-12-05T02:35:23.954Z,99.90
2018-12-05T02:37:25.919Z,99.90
2018-12-05T02:39:27.975Z,99.90
2018-12-05T02:41:29.939Z,99.90
2018-12-05T02:43:31.899Z,99.90
2018-12-05T02:45:33.923Z,99.90
2018-12-05T02:47:35.983Z,99.90
2018-12-05T02:49:37.947Z,99.90
2018-12-05T02:51:39.931Z,99.90
2018-12-05T02:53:41.891Z,99.30
2018-12-05T02:55:43.875Z,98.80
2018-12-05T02:57:45.827Z,98.30
2018-12-05T02:59:47.788Z,97.80
2018-12-05T03:01:49.750Z,97.30
2018-12-05T03:03:51.756Z,96.70
2018-12-05T03:05:53.866Z,96.90
2018-12-05T03:07:55.819Z,96.10
2018-12-05T03:09:57.775Z,96.30
2018-12-05T03:11:59.740Z,96.80
2018-12-05T03:14:01.699Z,97.30
2018-12-05T03:16:03.663Z,97.70
2018-12-05T03:18:05.732Z,98.00
2018-12-05T03:20:07.682Z,98.70
2018-12-05T03:22:09.632Z,98.50
2018-12-05T03:24:11.603Z,98.50
2018-12-05T03:26:20.221Z,98.10
2018-12-05T03:28:22.167Z,97.60
2018-12-05T03:30:24.130Z,98.60
2018-12-05T03:32:26.200Z,99.30
2018-12-05T03:34:28.143Z,99.50
2018-12-05T03:36:30.104Z,99.60
2018-12-05T03:38:32.068Z,99.70
2018-12-05T03:40:34.030Z,99.60
2018-12-05T03:42:36.095Z,99.50
2018-12-05T03:44:38.044Z,99.60
2018-12-05T03:46:40.112Z,99.40
2018-12-05T03:48:42.167Z,98.70
2018-12-05T03:50:44.130Z,98.70
2018-12-05T03:52:46.095Z,98.30
2018-12-05T03:54:48.080Z,98.20
2018-12-05T03:56:50.054Z,97.70
2018-12-05T03:58:52.107Z,97.70
2018-12-05T04:00:54.056Z,98.50
2018-12-05T04:02:56.494Z,97.50
2018-12-05T04:04:58.551Z,98.10
2018-12-05T04:07:00.498Z,98.50
2018-12-05T04:09:04.327Z,99.20
2018-12-05T04:11:06.267Z,99.10
2018-12-05T04:13:08.227Z,99.70
2018-12-05T04:15:10.304Z,99.90
2018-12-05T04:17:12.276Z,99.90
2018-12-05T04:19:14.327Z,99.90
2018-12-05T04:21:16.287Z,99.90
2018-12-05T04:23:25.416Z,99.90
2018-12-05T04:25:27.587Z,99.80
2018-12-05T04:27:29.548Z,99.30
2018-12-05T04:29:31.607Z,99.40
2018-12-05T04:31:33.559Z,98.90
2018-12-05T04:33:35.523Z,99.20
2018-12-05T04:35:37.468Z,99.30
2018-12-05T04:37:39.535Z,99.00
2018-12-05T04:39:41.495Z,99.10
2018-12-05T04:41:43.467Z,98.60
2018-12-05T04:43:45.519Z,98.60
2018-12-05T04:45:47.471Z,98.70
2018-12-05T04:47:49.441Z,98.30
2018-12-05T04:49:51.399Z,98.80
2018-12-05T04:51:53.356Z,99.00
2018-12-05T04:53:55.319Z,98.80
2018-12-05T04:55:57.275Z,98.70
2018-12-05T04:57:59.226Z,98.20
2018-12-05T05:00:01.213Z,98.60
2018-12-05T05:02:03.327Z,98.50
2018-12-05T05:04:05.627Z,98.50
2018-12-05T05:06:08.744Z,98.50
2018-12-05T05:08:11.697Z,98.20
2018-12-05T05:10:15.691Z,98.10
2018-12-05T05:12:17.626Z,98.10
2018-12-05T05:14:19.592Z,98.50
2018-12-05T05:16:21.555Z,98.70
2018-12-05T05:18:23.526Z,98.80
2018-12-05T05:20:25.484Z,99.20
2018-12-05T05:22:27.434Z,99.50
2018-12-05T05:24:29.399Z,99.40
2018-12-05T05:26:31.351Z,99.50
2018-12-05T05:28:33.299Z,99.60
2018-12-05T05:30:35.283Z,99.90
2018-12-05T05:32:37.247Z,99.90
2018-12-05T05:34:39.211Z,99.90
2018-12-05T05:36:41.163Z,99.90
2018-12-05T05:38:43.131Z,99.90
2018-12-05T05:40:45.087Z,99.90
2018-12-05T05:42:47.034Z,99.90
2018-12-05T05:44:49.022Z,99.90
2018-12-05T05:46:50.979Z,99.90
2018-12-05T05:48:52.935Z,99.90
2018-12-05T05:50:54.888Z,99.90
2018-12-05T05:52:56.843Z,99.90
2018-12-05T05:54:58.799Z,99.90
2018-12-05T05:57:00.762Z,99.10
2018-12-05T05:59:02.723Z,98.90
2018-12-05T06:01:04.715Z,98.60
2018-12-05T06:03:06.678Z,98.90
2018-12-05T06:05:08.634Z,98.80
2018-12-05T06:07:10.587Z,99.30
2018-12-05T06:09:12.548Z,99.10
2018-12-05T06:11:14.494Z,99.30
2018-12-05T06:13:16.439Z,99.70
2018-12-05T06:15:18.395Z,99.30
2018-12-05T06:17:20.401Z,98.60
2018-12-05T06:19:22.370Z,99.30
2018-12-05T06:21:24.326Z,99.60
2018-12-05T06:23:26.274Z,99.70
2018-12-05T06:25:28.240Z,99.90
2018-12-05T06:27:30.302Z,99.90
2018-12-05T06:29:32.372Z,99.90
2018-12-05T06:31:34.335Z,99.90
2018-12-05T06:33:36.724Z,99.90
2018-12-05T06:35:39.096Z,99.90
2018-12-05T06:37:41.047Z,99.90
2018-12-05T06:39:43.007Z,99.90
2018-12-05T06:41:44.983Z,99.90
2018-12-05T06:43:46.966Z,99.90
2018-12-05T06:45:48.909Z,99.90
2018-12-05T06:47:50.863Z,99.90
2018-12-05T06:49:52.816Z,99.90
2018-12-05T06:51:54.767Z,99.90
2018-12-05T06:53:56.747Z,99.90
2018-12-05T06:55:58.699Z,99.90
2018-12-05T06:58:00.651Z,99.90
2018-12-05T07:00:02.675Z,99.90
2018-12-05T07:02:04.793Z,99.90
2018-12-05T07:04:06.755Z,99.90
2018-12-05T07:06:08.715Z,99.90
2018-12-05T07:08:10.681Z,99.90
2018-12-05T07:10:12.643Z,99.90
2018-12-05T07:12:14.602Z,99.90
2018-12-05T07:14:16.571Z,99.90
2018-12-05T07:16:18.551Z,99.90
2018-12-05T07:18:20.507Z,99.90
2018-12-05T07:20:22.480Z,99.90
2018-12-05T07:22:24.436Z,99.90
2018-12-05T07:24:26.403Z,99.90
2018-12-05T07:26:28.363Z,99.90
2018-12-05T07:28:30.323Z,99.90
2018-12-05T07:30:39.275Z,99.90
2018-12-05T07:32:41.239Z,99.90
2018-12-05T07:34:43.207Z,99.90
2018-12-05T07:36:45.167Z,99.90
2018-12-05T07:38:47.123Z,99.90
2018-12-05T07:40:49.079Z,99.90
2018-12-05T07:42:51.043Z,99.90
2018-12-05T07:44:53.007Z,99.90
2018-12-05T07:46:54.971Z,99.90
2018-12-05T07:48:56.931Z,99.90
2018-12-05T07:50:58.902Z,99.90
2018-12-05T07:53:00.867Z,99.90
2018-12-05T07:55:02.843Z,99.90
2018-12-05T07:57:04.895Z,99.90
2018-12-05T07:59:06.851Z,99.90
2018-12-05T08:01:08.823Z,99.90
2018-12-05T08:03:10.784Z,99.90
2018-12-05T08:05:12.735Z,99.90
2018-12-05T08:07:14.707Z,99.90
2018-12-05T08:09:16.659Z,99.90
2018-12-05T08:11:18.611Z,99.90
2018-12-05T08:13:20.568Z,99.90
2018-12-05T08:15:22.663Z,99.90
2018-12-05T08:17:24.623Z,99.90
2018-12-05T08:19:26.590Z,99.90
2018-12-05T08:21:28.711Z,99.90
2018-12-05T08:23:30.659Z,99.90
2018-12-05T08:25:32.731Z,99.90
2018-12-05T08:27:34.687Z,99.90
2018-12-05T08:29:36.647Z,99.90
2018-12-05T08:31:38.602Z,99.90
2018-12-05T08:33:40.604Z,99.90
2018-12-05T08:35:42.568Z,99.90
2018-12-05T08:37:44.523Z,99.90
2018-12-05T08:39:46.580Z,99.90
2018-12-05T08:41:48.543Z,99.90
2018-12-05T08:43:50.487Z,99.90
2018-12-05T08:45:52.523Z,99.90
2018-12-05T08:47:54.554Z,99.90
2018-12-05T08:49:56.536Z,99.90
2018-12-05T08:51:58.607Z,99.90
2018-12-05T08:54:00.555Z,99.90
2018-12-05T08:56:02.519Z,99.90
2018-12-05T08:58:04.472Z,99.90
2018-12-05T09:00:07.251Z,99.50
2018-12-05T09:02:09.271Z,99.90
2018-12-05T09:04:11.222Z,97.70
2018-12-05T09:06:13.191Z,94.70
2018-12-05T09:08:15.139Z,92.60
2018-12-05T09:10:17.091Z,86.50
2018-12-05T09:12:19.055Z,82.60
2018-12-05T09:14:21.005Z,70.90
2018-12-05T09:16:23.058Z,59.30
2018-12-05T09:18:25.023Z,51.30
2018-12-05T09:20:26.975Z,48.20
2018-12-05T09:22:28.931Z,48.70
2018-12-05T09:24:30.879Z,43.10
2018-12-05T09:26:32.826Z,40.60
2018-12-05T09:28:34.793Z,41.90
2018-12-05T09:30:36.742Z,42.60
2018-12-05T09:32:38.711Z,41.10
2018-12-05T09:34:40.758Z,39.90
2018-12-05T09:36:42.716Z,38.90
2018-12-05T09:38:44.673Z,35.10
2018-12-05T09:40:46.723Z,34.70
2018-12-05T09:42:48.701Z,33.20
2018-12-05T09:44:50.758Z,36.80
2018-12-05T09:46:52.715Z,37.90
2018-12-05T09:48:54.667Z,31.60
2018-12-05T09:50:56.619Z,23.30
2018-12-05T09:52:58.566Z,21.60
2018-12-05T09:55:00.515Z,20.50
2018-12-05T09:57:02.482Z,21.20
2018-12-05T09:59:04.431Z,24.20
2018-12-05T10:01:06.383Z,23.10
2018-12-05T10:03:08.337Z,19.10
2018-12-05T10:05:10.284Z,19.10
2018-12-05T10:07:12.255Z,20.80
2018-12-05T10:09:14.203Z,21.40
2018-12-05T10:11:16.151Z,22.30
2018-12-05T10:13:18.103Z,24.10
2018-12-05T10:15:20.051Z,24.50
2018-12-05T10:17:22.031Z,26.20
2018-12-05T10:19:24.087Z,27.20
2018-12-05T10:21:26.043Z,26.20
2018-12-05T10:23:28.095Z,22.70
2018-12-05T10:25:30.039Z,25.00
2018-12-05T10:27:32.005Z,20.50
2018-12-05T10:29:33.958Z,16.90
2018-12-05T10:31:35.911Z,14.60
2018-12-05T10:33:37.868Z,9.50
2018-12-05T10:35:39.835Z,10.40
2018-12-05T10:37:41.809Z,12.80
2018-12-05T10:39:43.738Z,14.10
2018-12-05T10:41:45.723Z,14.20
2018-12-05T10:43:47.676Z,11.40
2018-12-05T10:45:49.731Z,9.60
2018-12-05T10:47:51.708Z,8.70
2018-12-05T10:49:53.655Z,8.10
2018-12-05T10:51:55.602Z,6.60
2018-12-05T10:53:57.563Z,5.90
2018-12-05T10:55:59.626Z,5.60
2018-12-05T10:58:01.579Z,5.80
2018-12-05T11:00:05.007Z,6.00
2018-12-05T11:02:12.846Z,4.60
2018-12-05T11:04:22.430Z,3.30
2018-12-05T11:07:32.534Z,3.90
2018-12-05T11:09:40.355Z,5.30
2018-12-05T11:11:48.163Z,3.70
2018-12-05T11:13:55.935Z,4.20
2018-12-05T11:16:03.719Z,6.60
2018-12-05T11:18:11.490Z,3.30
2018-12-05T11:20:19.218Z,1.70
2018-12-05T11:22:27.003Z,1.20
2018-12-05T11:24:32.211Z,3.40
2018-12-05T11:26:35.283Z,2.00
2018-12-05T11:28:37.234Z,1.00
2018-12-05T11:30:39.240Z,1.00
2018-12-05T11:32:41.188Z,1.00
2018-12-05T11:34:43.139Z,2.10
2018-12-05T11:36:45.091Z,2.50
2018-12-05T11:38:47.039Z,1.70
2018-12-05T11:40:49.043Z,1.00
2018-12-05T11:42:51.003Z,1.20
2018-12-05T11:44:52.966Z,1.00
2018-12-05T11:46:54.914Z,1.00
2018-12-05T11:48:56.858Z,1.00
2018-12-05T11:50:58.907Z,1.00
2018-12-05T11:53:00.859Z,1.00
2018-12-05T11:55:03.007Z,2.80
2018-12-05T11:57:04.966Z,3.80
2018-12-05T11:59:07.205Z,4.10
2018-12-05T12:01:09.267Z,3.90
2018-12-05T12:03:11.218Z,6.10
2018-12-05T12:05:13.150Z,4.40
2018-12-05T12:07:15.155Z,6.70
2018-12-05T12:09:17.106Z,8.90
2018-12-05T12:11:19.923Z,12.50
2018-12-05T12:13:21.912Z,13.20
2018-12-05T12:15:23.889Z,16.20
2018-12-05T12:17:25.874Z,16.00
2018-12-05T12:19:27.828Z,16.90
2018-12-05T12:21:29.788Z,18.50
2018-12-05T12:23:31.747Z,18.50
2018-12-05T12:25:33.696Z,19.20
2018-12-05T12:27:35.649Z,16.10
2018-12-05T12:29:37.623Z,15.80
2018-12-05T12:31:39.792Z,10.70
2018-12-05T12:33:41.848Z,10.80
2018-12-05T12:35:43.808Z,10.40
2018-12-05T12:37:45.868Z,8.40
2018-12-05T12:39:47.821Z,12.00
2018-12-05T12:41:49.773Z,13.30
2018-12-05T12:43:51.831Z,18.20
2018-12-05T12:45:53.795Z,18.40
2018-12-05T12:47:55.833Z,20.50
2018-12-05T12:49:58.027Z,22.10
2018-12-05T12:51:59.977Z,24.40
2018-12-05T12:54:01.931Z,27.00
2018-12-05T12:56:03.886Z,31.10
2018-12-05T12:58:05.835Z,32.00
2018-12-05T13:00:08.768Z,34.50
2018-12-05T13:02:10.724Z,35.30
2018-12-05T13:04:12.673Z,39.70
2018-12-05T13:06:14.679Z,41.20
2018-12-05T13:08:16.623Z,42.90
2018-12-05T13:10:18.579Z,40.40
2018-12-05T13:12:28.407Z,42.60
2018-12-05T13:14:30.348Z,41.50
2018-12-05T13:16:32.324Z,40.50
2018-12-05T13:18:34.379Z,40.10
2018-12-05T13:20:36.344Z,40.30
2018-12-05T13:22:38.298Z,42.50
2018-12-05T13:24:40.247Z,42.60
2018-12-05T13:26:42.204Z,42.00
2018-12-05T13:28:44.157Z,42.90
2018-12-05T13:30:46.111Z,46.30
2018-12-05T13:32:48.058Z,46.40
2018-12-05T13:34:50.010Z,50.30
2018-12-05T13:36:51.976Z,49.50
2018-12-05T13:38:53.934Z,50.50
2018-12-05T13:40:55.880Z,51.70
2018-12-05T13:42:57.842Z,52.50
2018-12-05T13:44:59.802Z,55.20
2018-12-05T13:47:01.986Z,57.10
2018-12-05T13:49:03.935Z,54.40
2018-12-05T13:51:05.911Z,56.50
2018-12-05T13:53:07.947Z,57.20
2018-12-05T13:55:09.903Z,58.20
2018-12-05T13:57:11.862Z,61.90
2018-12-05T13:59:13.815Z,61.00
2018-12-05T14:01:15.775Z,60.90
2018-12-05T14:03:17.768Z,62.10
2018-12-05T14:05:19.855Z,63.80
2018-12-05T14:07:21.813Z,67.70
2018-12-05T14:09:23.872Z,69.10
2018-12-05T14:11:25.831Z,71.60
2018-12-05T14:13:27.847Z,73.50
2018-12-05T14:15:29.799Z,75.20
2018-12-05T14:17:31.762Z,78.20
2018-12-05T14:19:33.723Z,76.80
2018-12-05T14:21:35.686Z,79.90
2018-12-05T14:23:37.753Z,81.90
2018-12-05T14:25:39.806Z,83.50
2018-12-05T14:27:41.771Z,85.10
2018-12-05T14:29:43.725Z,85.40
2018-12-05T14:31:45.683Z,87.00
2018-12-05T14:33:47.631Z,87.60
2018-12-05T14:35:49.596Z,87.90
2018-12-05T14:37:51.652Z,88.70
2018-12-05T14:39:53.694Z,88.80
2018-12-05T14:41:55.651Z,88.70
2018-12-05T14:44:04.303Z,88.60
2018-12-05T14:46:07.406Z,89.60
2018-12-05T14:48:09.714Z,89.10
2018-12-05T14:50:11.668Z,89.90
2018-12-05T14:52:13.619Z,89.90
2018-12-05T14:54:15.563Z,89.20
2018-12-05T14:56:17.515Z,90.20
2018-12-05T14:58:19.478Z,89.30
2018-12-05T15:00:21.431Z,90.30
2018-12-05T15:02:23.394Z,89.60
2018-12-05T15:04:25.357Z,90.00
2018-12-05T15:06:27.294Z,89.60
2018-12-05T15:08:29.251Z,90.20
2018-12-05T15:10:31.205Z,90.00
2018-12-05T15:12:33.164Z,89.00
2018-12-05T15:14:35.117Z,89.80
2018-12-05T15:16:37.075Z,90.70
2018-12-05T15:18:39.075Z,89.60
2018-12-05T15:20:41.032Z,88.80
2018-12-05T15:22:42.999Z,89.90
2018-12-05T15:24:45.071Z,89.70
2018-12-05T15:26:47.015Z,88.50
2018-12-05T15:28:48.981Z,89.50
2018-12-05T15:30:51.031Z,88.60
2018-12-05T15:32:53.007Z,88.50
2018-12-05T15:34:54.955Z,88.50
2018-12-05T15:36:56.910Z,87.50
2018-12-05T15:38:58.867Z,88.30
2018-12-05T15:41:00.814Z,88.60
2018-12-05T15:43:02.758Z,87.60
2018-12-05T15:45:05.703Z,87.10
2018-12-05T15:47:07.659Z,88.50
2018-12-05T15:49:09.623Z,88.40
2018-12-05T15:51:11.587Z,86.70
2018-12-05T15:53:13.546Z,87.70
2018-12-05T15:55:15.483Z,88.10
2018-12-05T15:57:17.431Z,87.30
2018-12-05T15:59:19.384Z,86.30
2018-12-05T16:01:21.331Z,87.20
2018-12-05T16:03:23.291Z,87.00
2018-12-05T16:05:25.359Z,86.10
2018-12-05T16:07:27.314Z,84.00
2018-12-05T16:09:29.259Z,86.90
2018-12-05T16:11:31.214Z,85.70
2018-12-05T16:13:33.172Z,85.50
2018-12-05T16:15:35.236Z,85.70
2018-12-05T16:17:37.204Z,85.10
2018-12-05T16:19:39.152Z,85.10
2018-12-05T16:21:41.144Z,83.30
2018-12-05T16:23:43.135Z,85.00
2018-12-05T16:25:45.125Z,85.50
2018-12-05T16:27:47.140Z,84.20
2018-12-05T16:29:49.126Z,84.00
2018-12-05T16:31:51.126Z,86.00
2018-12-05T16:33:53.083Z,84.60
2018-12-05T16:35:55.036Z,84.70
2018-12-05T16:37:56.991Z,83.90
2018-12-05T16:39:58.943Z,85.60
2018-12-05T16:42:00.900Z,84.70
2018-12-05T16:44:02.855Z,84.80
2018-12-05T16:46:04.806Z,84.70
2018-12-05T16:48:06.770Z,84.00
2018-12-05T16:50:08.733Z,85.00
2018-12-05T16:52:10.691Z,84.60
2018-12-05T16:54:13.163Z,86.70
2018-12-05T16:56:15.119Z,85.50
2018-12-05T16:58:17.080Z,85.50
2018-12-05T17:00:19.134Z,83.90
2018-12-05T17:02:21.183Z,86.10
2018-12-05T17:04:23.131Z,85.40
2018-12-05T17:06:25.086Z,84.10
2018-12-05T17:08:27.047Z,87.20
2018-12-05T17:10:28.999Z,85.30
2018-12-05T17:12:30.954Z,85.00
2018-12-05T17:14:32.911Z,85.50
2018-12-05T17:16:34.870Z,85.90
2018-12-05T17:18:36.833Z,86.70
2018-12-05T17:20:38.776Z,88.30
2018-12-05T17:22:40.727Z,84.90
2018-12-05T17:24:42.679Z,86.30
2018-12-05T17:26:44.635Z,87.00
2018-12-05T17:28:46.600Z,86.40
2018-12-05T17:30:48.566Z,86.00
2018-12-05T17:32:50.651Z,85.50
2018-12-05T17:34:52.607Z,85.90
2018-12-05T17:36:54.563Z,86.10
2018-12-05T17:38:56.519Z,86.30
2018-12-05T17:40:58.462Z,86.00
2018-12-05T17:43:00.398Z,86.60
2018-12-05T17:45:02.338Z,85.70
2018-12-05T17:47:04.296Z,84.60
2018-12-05T17:49:06.387Z,87.00
2018-12-05T17:51:08.339Z,86.80
2018-12-05T17:53:10.284Z,86.30
2018-12-05T17:55:12.303Z,85.70
2018-12-05T17:57:14.255Z,86.60
2018-12-05T17:59:16.224Z,85.00
2018-12-05T18:01:18.287Z,87.00
2018-12-05T18:03:20.243Z,86.00
2018-12-05T18:05:22.207Z,85.90
2018-12-05T18:07:24.160Z,86.20
2018-12-05T18:09:26.124Z,85.70
2018-12-05T18:11:28.075Z,86.40
2018-12-05T18:13:30.023Z,84.80
2018-12-05T18:15:32.007Z,86.20
2018-12-05T18:17:33.967Z,86.10
2018-12-05T18:19:35.944Z,86.00
2018-12-05T18:21:37.895Z,86.70
2018-12-05T18:23:39.847Z,85.70
2018-12-05T18:25:41.807Z,87.50
2018-12-05T18:27:43.749Z,86.50
2018-12-05T18:29:45.711Z,87.10
2018-12-05T18:31:47.663Z,88.00
2018-12-05T18:33:49.620Z,88.80
2018-12-05T18:35:51.588Z,87.30
2018-12-05T18:37:53.659Z,87.70
2018-12-05T18:39:55.730Z,88.40
2018-12-05T18:41:57.683Z,87.80
2018-12-05T18:43:59.638Z,87.90
2018-12-05T18:46:01.607Z,87.20
2018-12-05T18:48:03.571Z,88.00
2018-12-05T18:50:06.291Z,87.60
2018-12-05T18:52:08.235Z,87.60
2018-12-05T18:54:10.213Z,88.90
2018-12-05T18:56:12.175Z,88.60
2018-12-05T18:58:14.154Z,88.30
2018-12-05T19:00:16.278Z,88.50
2018-12-05T19:02:18.305Z,88.50
2018-12-05T19:04:20.351Z,88.50
2018-12-05T19:06:22.307Z,89.30
2018-12-05T19:08:24.259Z,88.90
2018-12-05T19:10:26.233Z,88.50
2018-12-05T19:12:28.288Z,88.50
2018-12-05T19:14:36.003Z,88.50
2018-12-05T19:16:37.967Z,88.90
2018-12-05T19:18:39.924Z,90.00
2018-12-05T19:20:41.887Z,88.70
2018-12-05T19:22:43.834Z,90.00
2018-12-05T19:24:45.790Z,90.10
2018-12-05T19:26:47.859Z,90.40
2018-12-05T19:28:49.820Z,90.60
2018-12-05T19:30:51.778Z,90.10
2018-12-05T19:32:53.839Z,90.30
2018-12-05T19:34:55.802Z,90.50
2018-12-05T19:36:57.798Z,91.20
2018-12-05T19:38:59.759Z,90.90
2018-12-05T19:41:01.712Z,90.90
2018-12-05T19:43:03.952Z,91.10
2018-12-05T19:45:06.794Z,90.90
2018-12-05T19:47:08.871Z,91.30
2018-12-05T19:49:10.966Z,90.70
2018-12-05T19:51:12.971Z,91.40
2018-12-05T19:53:14.919Z,91.40
2018-12-05T19:55:16.928Z,91.90
2018-12-05T19:57:18.890Z,92.10
2018-12-05T19:59:20.907Z,92.40
2018-12-05T20:01:22.895Z,93.50
2018-12-05T20:03:24.851Z,94.40
2018-12-05T20:05:26.916Z,94.60
2018-12-05T20:07:28.875Z,94.50
2018-12-05T20:09:30.827Z,94.80
2018-12-05T20:11:32.794Z,95.40
2018-12-05T20:13:35.715Z,95.50
2018-12-05T20:15:37.667Z,96.40
2018-12-05T20:17:39.655Z,96.40
2018-12-05T20:19:41.634Z,96.80
2018-12-05T20:21:43.698Z,96.40
2018-12-05T20:23:45.781Z,96.30
2018-12-05T20:25:47.734Z,96.20
2018-12-05T20:27:49.694Z,96.90
2018-12-05T20:29:51.742Z,97.30
2018-12-05T20:31:53.703Z,96.70
2018-12-05T20:33:55.670Z,97.30
2018-12-05T20:35:57.659Z,97.30
2018-12-05T20:37:59.619Z,97.60
2018-12-05T20:40:03.591Z,97.10
2018-12-05T20:42:05.555Z,97.50
2018-12-05T20:44:07.649Z,98.00
2018-12-05T20:46:09.599Z,98.00
2018-12-05T20:48:11.555Z,97.40
2018-12-05T20:50:13.815Z,97.40
2018-12-05T20:52:15.963Z,98.00
2018-12-05T20:54:17.923Z,98.40
2018-12-05T20:56:19.879Z,98.70
2018-12-05T20:58:21.843Z,98.40
2018-12-05T21:00:23.798Z,98.90
2018-12-05T21:02:25.771Z,97.80
2018-12-05T21:04:27.725Z,97.90
2018-12-05T21:06:29.770Z,98.20
2018-12-05T21:08:31.915Z,98.00
2018-12-05T21:10:33.877Z,98.00
2018-12-05T21:12:36.135Z,98.20
2018-12-05T21:14:38.095Z,97.40
2018-12-05T21:16:40.051Z,97.50
2018-12-05T21:18:42.036Z,97.50
2018-12-05T21:20:44.111Z,97.50
2018-12-05T21:22:47.222Z,97.90
2018-12-05T21:24:49.833Z,98.10
2018-12-05T21:26:51.789Z,98.20
2018-12-05T21:28:53.747Z,97.50
2018-12-05T21:30:55.703Z,97.80
2018-12-05T21:32:57.659Z,97.70
2018-12-05T21:34:59.626Z,98.10
2018-12-05T21:37:01.632Z,98.20
2018-12-05T21:39:06.919Z,98.10
2018-12-05T21:41:08.871Z,99.10
2018-12-05T21:43:10.844Z,99.60
2018-12-05T21:45:12.892Z,99.90
2018-12-05T21:47:14.863Z,99.90
2018-12-05T21:49:16.827Z,99.90
2018-12-05T21:51:18.782Z,99.90
2018-12-05T21:53:20.759Z,99.90
2018-12-05T21:55:22.743Z,99.90
2018-12-05T21:57:24.694Z,99.90
2018-12-05T21:59:26.744Z,99.90
2018-12-05T22:01:28.711Z,99.90
2018-12-05T22:03:30.684Z,99.90
2018-12-05T22:05:32.655Z,99.90
2018-12-05T22:07:34.615Z,99.90
2018-12-05T22:09:36.587Z,99.90
2018-12-05T22:11:38.635Z,99.90
2018-12-05T22:13:40.586Z,99.90
2018-12-05T22:15:42.543Z,99.90
2018-12-05T22:17:44.603Z,99.90
2018-12-05T22:19:46.559Z,99.90
2018-12-05T22:21:48.512Z,99.90
2018-12-05T22:23:50.491Z,99.90
2018-12-05T22:25:52.443Z,99.90
2018-12-05T22:27:54.390Z,99.90
2018-12-05T22:29:56.343Z,99.90
2018-12-05T22:31:58.299Z,99.90
2018-12-05T22:34:00.255Z,99.90
2018-12-05T22:36:02.331Z,99.90
2018-12-05T22:38:04.274Z,99.90
2018-12-05T22:40:07.379Z,99.90
2018-12-05T22:46:56.567Z,99.90
2018-12-05T22:48:58.543Z,99.90
2018-12-05T22:51:00.492Z,99.90
2018-12-05T22:53:02.564Z,99.90
2018-12-05T22:55:04.628Z,99.90
2018-12-05T22:57:12.968Z,99.90
2018-12-05T22:59:15.176Z,99.90
2018-12-05T23:01:17.163Z,99.90
2018-12-05T23:03:19.123Z,99.90
2018-12-05T23:05:21.081Z,99.90
2018-12-05T23:07:23.018Z,99.90
2018-12-05T23:09:24.975Z,99.90
2018-12-05T23:11:26.918Z,99.90
2018-12-05T23:13:28.871Z,99.90
2018-12-05T23:15:30.819Z,99.90
2018-12-05T23:17:32.787Z,99.90
2018-12-05T23:19:34.851Z,99.90
2018-12-05T23:21:36.802Z,99.90
2018-12-05T23:23:38.734Z,99.90
2018-12-05T23:25:40.688Z,99.90
2018-12-05T23:27:42.638Z,99.90
2018-12-05T23:29:44.595Z,99.90
2018-12-05T23:31:46.526Z,99.90
2018-12-05T23:33:48.477Z,99.90
2018-12-05T23:35:50.427Z,99.90
2018-12-05T23:37:52.379Z,99.90
2018-12-05T23:39:54.335Z,99.90
2018-12-05T23:41:56.274Z,99.90
2018-12-05T23:43:58.227Z,99.90
2018-12-05T23:46:00.172Z,99.90
2018-12-05T23:48:02.118Z,99.90
2018-12-05T23:50:04.363Z,99.90
2018-12-05T23:52:06.312Z,99.90
2018-12-05T23:54:08.268Z,99.90
2018-12-05T23:56:10.225Z,99.90
2018-12-05T23:58:12.178Z,99.90
